sensor_id;sensor_type;location;lat;lon;timestamp;P1;durP1;ratioP1;P2;durP2;ratioP2
23670;SDS011;12012;51.998;7.614;2022-08-02T00:01:20;7.32;;;3.85;;
23670;SDS011;12012;51.998;7.614;2022-08-02T00:03:46;9.70;;;4.00;;
23670;SDS011;12012;51.998;7.614;2022-08-02T00:06:11;7.32;;;3.45;;
23670;SDS011;12012;51.998;7.614;2022-08-02T00:08:37;9.65;;;3.60;;
23670;SDS011;12012;51.998;7.614;2022-08-02T00:11:03;8.38;;;3.75;;
23670;SDS011;12012;51.998;7.614;2022-08-02T00:13:28;5.90;;;3.60;;
23670;SDS011;12012;51.998;7.614;2022-08-02T00:15:54;6.28;;;3.58;;
23670;SDS011;12012;51.998;7.614;2022-08-02T00:18:19;4.68;;;3.60;;
23670;SDS011;12012;51.998;7.614;2022-08-02T00:20:45;7.13;;;4.03;;
23670;SDS011;12012;51.998;7.614;2022-08-02T00:23:11;8.02;;;3.80;;
23670;SDS011;12012;51.998;7.614;2022-08-02T00:25:36;8.02;;;4.05;;
23670;SDS011;12012;51.998;7.614;2022-08-02T00:28:02;3.72;;;3.10;;
23670;SDS011;12012;51.998;7.614;2022-08-02T00:30:28;6.85;;;3.17;;
23670;SDS011;12012;51.998;7.614;2022-08-02T00:32:53;7.53;;;3.70;;
23670;SDS011;12012;51.998;7.614;2022-08-02T00:35:19;8.35;;;3.42;;
23670;SDS011;12012;51.998;7.614;2022-08-02T00:37:44;5.25;;;3.30;;
23670;SDS011;12012;51.998;7.614;2022-08-02T00:40:10;7.68;;;3.30;;
23670;SDS011;12012;51.998;7.614;2022-08-02T00:42:37;8.40;;;3.97;;
23670;SDS011;12012;51.998;7.614;2022-08-02T00:45:03;5.40;;;3.40;;
23670;SDS011;12012;51.998;7.614;2022-08-02T00:47:29;9.73;;;3.50;;
23670;SDS011;12012;51.998;7.614;2022-08-02T00:49:55;8.88;;;4.00;;
23670;SDS011;12012;51.998;7.614;2022-08-02T00:52:21;7.82;;;3.20;;
23670;SDS011;12012;51.998;7.614;2022-08-02T00:54:47;5.25;;;3.33;;
23670;SDS011;12012;51.998;7.614;2022-08-02T00:57:13;5.03;;;3.03;;
23670;SDS011;12012;51.998;7.614;2022-08-02T00:59:39;3.75;;;2.75;;
23670;SDS011;12012;51.998;7.614;2022-08-02T01:02:06;6.07;;;2.80;;
23670;SDS011;12012;51.998;7.614;2022-08-02T01:04:34;9.60;;;3.65;;
23670;SDS011;12012;51.998;7.614;2022-08-02T01:07:00;6.30;;;3.13;;
23670;SDS011;12012;51.998;7.614;2022-08-02T01:09:30;6.97;;;3.40;;
23670;SDS011;12012;51.998;7.614;2022-08-02T01:11:56;6.82;;;3.90;;
23670;SDS011;12012;51.998;7.614;2022-08-02T01:14:21;9.25;;;3.95;;
23670;SDS011;12012;51.998;7.614;2022-08-02T01:16:53;7.53;;;3.75;;
23670;SDS011;12012;51.998;7.614;2022-08-02T01:22:37;5.82;;;3.70;;
23670;SDS011;12012;51.998;7.614;2022-08-02T01:28:34;7.30;;;4.80;;
23670;SDS011;12012;51.998;7.614;2022-08-02T01:31:17;6.80;;;3.90;;
23670;SDS011;12012;51.998;7.614;2022-08-02T01:33:54;8.15;;;3.50;;
23670;SDS011;12012;51.998;7.614;2022-08-02T01:36:26;7.07;;;4.53;;
23670;SDS011;12012;51.998;7.614;2022-08-02T01:38:57;5.28;;;3.67;;
23670;SDS011;12012;51.998;7.614;2022-08-02T01:41:25;5.22;;;3.50;;
23670;SDS011;12012;51.998;7.614;2022-08-02T01:43:58;4.30;;;3.63;;
23670;SDS011;12012;51.998;7.614;2022-08-02T01:46:26;7.43;;;3.95;;
23670;SDS011;12012;51.998;7.614;2022-08-02T01:48:54;5.28;;;3.53;;
23670;SDS011;12012;51.998;7.614;2022-08-02T01:51:22;6.68;;;4.60;;
23670;SDS011;12012;51.998;7.614;2022-08-02T01:54:08;7.45;;;4.93;;
23670;SDS011;12012;51.998;7.614;2022-08-02T01:56:38;8.10;;;4.32;;
23670;SDS011;12012;51.998;7.614;2022-08-02T01:59:06;8.75;;;4.40;;
23670;SDS011;12012;51.998;7.614;2022-08-02T02:01:37;7.63;;;4.03;;
23670;SDS011;12012;51.998;7.614;2022-08-02T02:04:05;7.13;;;4.03;;
23670;SDS011;12012;51.998;7.614;2022-08-02T02:06:32;8.93;;;4.50;;
23670;SDS011;12012;51.998;7.614;2022-08-02T02:09:00;7.22;;;3.88;;
23670;SDS011;12012;51.998;7.614;2022-08-02T02:11:27;7.82;;;4.53;;
23670;SDS011;12012;51.998;7.614;2022-08-02T02:13:52;6.72;;;4.32;;
23670;SDS011;12012;51.998;7.614;2022-08-02T02:16:22;9.10;;;4.40;;
23670;SDS011;12012;51.998;7.614;2022-08-02T02:18:48;10.43;;;5.05;;
23670;SDS011;12012;51.998;7.614;2022-08-02T02:21:16;9.32;;;4.95;;
23670;SDS011;12012;51.998;7.614;2022-08-02T02:23:42;8.80;;;4.63;;
23670;SDS011;12012;51.998;7.614;2022-08-02T02:26:08;5.50;;;3.60;;
23670;SDS011;12012;51.998;7.614;2022-08-02T02:28:37;6.07;;;3.50;;
23670;SDS011;12012;51.998;7.614;2022-08-02T02:31:11;8.35;;;4.88;;
23670;SDS011;12012;51.998;7.614;2022-08-02T02:33:40;7.80;;;4.20;;
23670;SDS011;12012;51.998;7.614;2022-08-02T02:36:39;8.40;;;4.72;;
23670;SDS011;12012;51.998;7.614;2022-08-02T02:39:09;8.20;;;4.05;;
23670;SDS011;12012;51.998;7.614;2022-08-02T02:41:38;12.32;;;5.25;;
23670;SDS011;12012;51.998;7.614;2022-08-02T02:44:06;9.88;;;4.65;;
23670;SDS011;12012;51.998;7.614;2022-08-02T02:46:35;6.75;;;4.38;;
23670;SDS011;12012;51.998;7.614;2022-08-02T02:49:01;6.20;;;3.63;;
23670;SDS011;12012;51.998;7.614;2022-08-02T02:51:27;7.20;;;3.97;;
23670;SDS011;12012;51.998;7.614;2022-08-02T02:53:54;4.38;;;3.40;;
23670;SDS011;12012;51.998;7.614;2022-08-02T02:56:20;8.38;;;3.88;;
23670;SDS011;12012;51.998;7.614;2022-08-02T02:58:47;6.45;;;4.03;;
23670;SDS011;12012;51.998;7.614;2022-08-02T03:01:13;7.88;;;3.42;;
23670;SDS011;12012;51.998;7.614;2022-08-02T03:03:51;7.20;;;4.53;;
23670;SDS011;12012;51.998;7.614;2022-08-02T03:06:21;4.13;;;3.50;;
23670;SDS011;12012;51.998;7.614;2022-08-02T03:08:47;8.30;;;4.80;;
23670;SDS011;12012;51.998;7.614;2022-08-02T03:11:13;12.23;;;5.40;;
23670;SDS011;12012;51.998;7.614;2022-08-02T03:13:39;8.55;;;4.85;;
23670;SDS011;12012;51.998;7.614;2022-08-02T03:16:05;11.30;;;5.55;;
23670;SDS011;12012;51.998;7.614;2022-08-02T03:18:38;6.53;;;4.15;;
23670;SDS011;12012;51.998;7.614;2022-08-02T03:21:05;9.02;;;5.03;;
23670;SDS011;12012;51.998;7.614;2022-08-02T03:23:32;10.63;;;4.43;;
23670;SDS011;12012;51.998;7.614;2022-08-02T03:25:58;7.18;;;4.22;;
23670;SDS011;12012;51.998;7.614;2022-08-02T03:28:24;6.80;;;3.47;;
23670;SDS011;12012;51.998;7.614;2022-08-02T03:30:50;6.53;;;3.75;;
23670;SDS011;12012;51.998;7.614;2022-08-02T03:33:17;9.88;;;5.60;;
23670;SDS011;12012;51.998;7.614;2022-08-02T03:35:43;8.55;;;4.38;;
23670;SDS011;12012;51.998;7.614;2022-08-02T03:38:11;8.52;;;5.25;;
23670;SDS011;12012;51.998;7.614;2022-08-02T03:40:38;6.78;;;4.38;;
23670;SDS011;12012;51.998;7.614;2022-08-02T03:43:05;6.95;;;4.82;;
23670;SDS011;12012;51.998;7.614;2022-08-02T03:45:33;13.23;;;5.40;;
23670;SDS011;12012;51.998;7.614;2022-08-02T03:48:03;6.40;;;3.60;;
23670;SDS011;12012;51.998;7.614;2022-08-02T03:50:29;10.00;;;4.53;;
23670;SDS011;12012;51.998;7.614;2022-08-02T03:52:56;4.25;;;3.83;;
23670;SDS011;12012;51.998;7.614;2022-08-02T03:55:23;8.13;;;4.78;;
23670;SDS011;12012;51.998;7.614;2022-08-02T03:57:49;8.07;;;4.93;;
23670;SDS011;12012;51.998;7.614;2022-08-02T04:00:17;7.72;;;4.60;;
23670;SDS011;12012;51.998;7.614;2022-08-02T04:02:44;7.38;;;3.75;;
23670;SDS011;12012;51.998;7.614;2022-08-02T04:05:10;6.20;;;4.03;;
23670;SDS011;12012;51.998;7.614;2022-08-02T04:07:36;4.55;;;3.42;;
23670;SDS011;12012;51.998;7.614;2022-08-02T04:10:03;7.13;;;4.57;;
23670;SDS011;12012;51.998;7.614;2022-08-02T04:12:29;4.82;;;3.90;;
23670;SDS011;12012;51.998;7.614;2022-08-02T04:14:55;5.63;;;3.95;;
23670;SDS011;12012;51.998;7.614;2022-08-02T04:17:21;9.02;;;4.60;;
23670;SDS011;12012;51.998;7.614;2022-08-02T04:19:49;4.97;;;4.13;;
23670;SDS011;12012;51.998;7.614;2022-08-02T04:22:20;8.38;;;5.20;;
23670;SDS011;12012;51.998;7.614;2022-08-02T04:24:50;9.60;;;5.97;;
23670;SDS011;12012;51.998;7.614;2022-08-02T04:27:19;5.47;;;4.40;;
23670;SDS011;12012;51.998;7.614;2022-08-02T04:29:47;8.90;;;5.15;;
23670;SDS011;12012;51.998;7.614;2022-08-02T04:32:14;6.82;;;4.78;;
23670;SDS011;12012;51.998;7.614;2022-08-02T04:34:41;5.95;;;4.38;;
23670;SDS011;12012;51.998;7.614;2022-08-02T04:37:07;7.22;;;4.95;;
23670;SDS011;12012;51.998;7.614;2022-08-02T04:39:35;7.40;;;4.25;;
23670;SDS011;12012;51.998;7.614;2022-08-02T04:42:01;9.00;;;5.88;;
23670;SDS011;12012;51.998;7.614;2022-08-02T04:44:26;7.25;;;4.30;;
23670;SDS011;12012;51.998;7.614;2022-08-02T04:46:52;9.25;;;4.90;;
23670;SDS011;12012;51.998;7.614;2022-08-02T04:49:19;9.57;;;4.85;;
23670;SDS011;12012;51.998;7.614;2022-08-02T04:51:44;10.10;;;3.92;;
23670;SDS011;12012;51.998;7.614;2022-08-02T04:54:10;9.25;;;5.32;;
23670;SDS011;12012;51.998;7.614;2022-08-02T04:56:37;6.15;;;5.32;;
23670;SDS011;12012;51.998;7.614;2022-08-02T04:59:03;11.23;;;5.70;;
23670;SDS011;12012;51.998;7.614;2022-08-02T05:01:30;8.45;;;5.05;;
23670;SDS011;12012;51.998;7.614;2022-08-02T05:03:56;8.43;;;4.72;;
23670;SDS011;12012;51.998;7.614;2022-08-02T05:06:21;7.80;;;5.30;;
23670;SDS011;12012;51.998;7.614;2022-08-02T05:08:47;9.55;;;6.22;;
23670;SDS011;12012;51.998;7.614;2022-08-02T05:11:13;8.88;;;5.95;;
23670;SDS011;12012;51.998;7.614;2022-08-02T05:13:42;14.45;;;6.15;;
23670;SDS011;12012;51.998;7.614;2022-08-02T05:16:08;7.55;;;5.13;;
23670;SDS011;12012;51.998;7.614;2022-08-02T05:18:33;10.23;;;6.13;;
23670;SDS011;12012;51.998;7.614;2022-08-02T05:20:59;8.05;;;4.72;;
23670;SDS011;12012;51.998;7.614;2022-08-02T05:23:25;7.72;;;5.90;;
23670;SDS011;12012;51.998;7.614;2022-08-02T05:25:51;7.90;;;4.75;;
23670;SDS011;12012;51.998;7.614;2022-08-02T05:28:16;6.15;;;3.75;;
23670;SDS011;12012;51.998;7.614;2022-08-02T05:30:42;3.70;;;3.22;;
23670;SDS011;12012;51.998;7.614;2022-08-02T05:33:07;5.00;;;3.53;;
23670;SDS011;12012;51.998;7.614;2022-08-02T05:35:33;6.35;;;4.32;;
23670;SDS011;12012;51.998;7.614;2022-08-02T05:37:59;11.23;;;5.55;;
23670;SDS011;12012;51.998;7.614;2022-08-02T05:40:24;8.75;;;4.10;;
23670;SDS011;12012;51.998;7.614;2022-08-02T05:42:50;6.82;;;4.10;;
23670;SDS011;12012;51.998;7.614;2022-08-02T05:45:16;7.70;;;4.78;;
23670;SDS011;12012;51.998;7.614;2022-08-02T05:47:41;7.63;;;4.90;;
23670;SDS011;12012;51.998;7.614;2022-08-02T05:50:07;8.43;;;5.07;;
23670;SDS011;12012;51.998;7.614;2022-08-02T05:52:45;5.57;;;4.18;;
23670;SDS011;12012;51.998;7.614;2022-08-02T05:55:36;5.57;;;4.00;;
23670;SDS011;12012;51.998;7.614;2022-08-02T06:00:42;6.05;;;4.90;;
23670;SDS011;12012;51.998;7.614;2022-08-02T06:06:03;4.75;;;3.47;;
23670;SDS011;12012;51.998;7.614;2022-08-02T06:08:37;14.07;;;7.03;;
23670;SDS011;12012;51.998;7.614;2022-08-02T06:11:06;5.35;;;3.58;;
23670;SDS011;12012;51.998;7.614;2022-08-02T06:16:05;14.07;;;7.93;;
23670;SDS011;12012;51.998;7.614;2022-08-02T06:18:32;6.55;;;4.75;;
23670;SDS011;12012;51.998;7.614;2022-08-02T06:21:00;14.57;;;6.68;;
23670;SDS011;12012;51.998;7.614;2022-08-02T06:23:27;10.05;;;6.30;;
23670;SDS011;12012;51.998;7.614;2022-08-02T06:25:53;5.75;;;5.18;;
23670;SDS011;12012;51.998;7.614;2022-08-02T06:28:21;11.50;;;8.40;;
23670;SDS011;12012;51.998;7.614;2022-08-02T06:30:48;17.30;;;8.95;;
23670;SDS011;12012;51.998;7.614;2022-08-02T06:33:14;20.58;;;10.45;;
23670;SDS011;12012;51.998;7.614;2022-08-02T06:38:32;10.73;;;8.50;;
23670;SDS011;12012;51.998;7.614;2022-08-02T06:41:08;14.07;;;8.32;;
23670;SDS011;12012;51.998;7.614;2022-08-02T06:46:22;11.40;;;8.70;;
23670;SDS011;12012;51.998;7.614;2022-08-02T06:48:48;19.70;;;12.23;;
23670;SDS011;12012;51.998;7.614;2022-08-02T06:51:14;13.07;;;7.88;;
23670;SDS011;12012;51.998;7.614;2022-08-02T06:53:40;19.58;;;12.32;;
23670;SDS011;12012;51.998;7.614;2022-08-02T06:56:06;17.80;;;11.38;;
23670;SDS011;12012;51.998;7.614;2022-08-02T06:58:32;13.82;;;10.80;;
23670;SDS011;12012;51.998;7.614;2022-08-02T07:00:57;21.65;;;15.45;;
23670;SDS011;12012;51.998;7.614;2022-08-02T07:03:23;22.70;;;12.02;;
23670;SDS011;12012;51.998;7.614;2022-08-02T07:05:52;19.52;;;12.45;;
23670;SDS011;12012;51.998;7.614;2022-08-02T07:08:19;17.45;;;11.60;;
23670;SDS011;12012;51.998;7.614;2022-08-02T07:10:45;17.60;;;11.95;;
23670;SDS011;12012;51.998;7.614;2022-08-02T07:13:11;16.30;;;11.95;;
23670;SDS011;12012;51.998;7.614;2022-08-02T07:15:37;15.45;;;9.93;;
23670;SDS011;12012;51.998;7.614;2022-08-02T07:18:03;11.85;;;9.20;;
23670;SDS011;12012;51.998;7.614;2022-08-02T07:20:29;14.80;;;9.48;;
23670;SDS011;12012;51.998;7.614;2022-08-02T07:22:55;14.98;;;10.50;;
23670;SDS011;12012;51.998;7.614;2022-08-02T07:25:21;17.88;;;9.57;;
23670;SDS011;12012;51.998;7.614;2022-08-02T07:27:47;8.73;;;6.55;;
23670;SDS011;12012;51.998;7.614;2022-08-02T07:30:12;16.40;;;8.07;;
23670;SDS011;12012;51.998;7.614;2022-08-02T07:32:38;13.68;;;9.15;;
23670;SDS011;12012;51.998;7.614;2022-08-02T07:35:05;18.83;;;9.90;;
23670;SDS011;12012;51.998;7.614;2022-08-02T07:37:31;12.70;;;7.55;;
23670;SDS011;12012;51.998;7.614;2022-08-02T07:39:58;12.07;;;5.57;;
23670;SDS011;12012;51.998;7.614;2022-08-02T07:42:23;10.05;;;6.00;;
23670;SDS011;12012;51.998;7.614;2022-08-02T07:44:49;12.38;;;6.97;;
23670;SDS011;12012;51.998;7.614;2022-08-02T07:47:15;11.63;;;7.38;;
23670;SDS011;12012;51.998;7.614;2022-08-02T07:49:41;14.23;;;7.90;;
23670;SDS011;12012;51.998;7.614;2022-08-02T07:52:07;14.25;;;7.65;;
23670;SDS011;12012;51.998;7.614;2022-08-02T07:54:33;12.55;;;7.93;;
23670;SDS011;12012;51.998;7.614;2022-08-02T07:56:59;12.38;;;7.47;;
23670;SDS011;12012;51.998;7.614;2022-08-02T07:59:25;15.60;;;7.65;;
23670;SDS011;12012;51.998;7.614;2022-08-02T08:01:51;11.18;;;5.95;;
23670;SDS011;12012;51.998;7.614;2022-08-02T08:04:17;10.55;;;5.72;;
23670;SDS011;12012;51.998;7.614;2022-08-02T08:06:43;13.52;;;6.88;;
23670;SDS011;12012;51.998;7.614;2022-08-02T08:09:09;11.63;;;5.45;;
23670;SDS011;12012;51.998;7.614;2022-08-02T08:11:35;8.25;;;4.63;;
23670;SDS011;12012;51.998;7.614;2022-08-02T08:14:01;10.25;;;5.90;;
23670;SDS011;12012;51.998;7.614;2022-08-02T08:16:28;10.13;;;5.80;;
23670;SDS011;12012;51.998;7.614;2022-08-02T08:18:54;10.77;;;4.72;;
23670;SDS011;12012;51.998;7.614;2022-08-02T08:21:20;8.63;;;5.15;;
23670;SDS011;12012;51.998;7.614;2022-08-02T08:23:46;9.27;;;4.30;;
23670;SDS011;12012;51.998;7.614;2022-08-02T08:26:12;8.95;;;4.38;;
23670;SDS011;12012;51.998;7.614;2022-08-02T08:28:38;8.43;;;3.53;;
23670;SDS011;12012;51.998;7.614;2022-08-02T08:31:04;5.35;;;2.80;;
23670;SDS011;12012;51.998;7.614;2022-08-02T08:33:30;8.45;;;3.50;;
23670;SDS011;12012;51.998;7.614;2022-08-02T08:35:55;7.53;;;4.00;;
23670;SDS011;12012;51.998;7.614;2022-08-02T08:38:21;6.55;;;2.80;;
23670;SDS011;12012;51.998;7.614;2022-08-02T08:40:47;8.88;;;3.45;;
23670;SDS011;12012;51.998;7.614;2022-08-02T08:43:13;4.82;;;2.90;;
23670;SDS011;12012;51.998;7.614;2022-08-02T08:45:43;6.82;;;2.85;;
23670;SDS011;12012;51.998;7.614;2022-08-02T08:48:10;5.25;;;2.80;;
23670;SDS011;12012;51.998;7.614;2022-08-02T08:50:38;4.90;;;3.17;;
23670;SDS011;12012;51.998;7.614;2022-08-02T08:53:09;4.95;;;3.13;;
23670;SDS011;12012;51.998;7.614;2022-08-02T08:55:35;5.88;;;3.05;;
23670;SDS011;12012;51.998;7.614;2022-08-02T08:58:02;3.63;;;2.58;;
23670;SDS011;12012;51.998;7.614;2022-08-02T09:00:29;6.10;;;3.25;;
23670;SDS011;12012;51.998;7.614;2022-08-02T09:02:56;4.13;;;2.58;;
23670;SDS011;12012;51.998;7.614;2022-08-02T09:05:22;5.38;;;3.28;;
23670;SDS011;12012;51.998;7.614;2022-08-02T09:07:50;4.72;;;3.35;;
23670;SDS011;12012;51.998;7.614;2022-08-02T09:15:43;4.50;;;2.40;;
23670;SDS011;12012;51.998;7.614;2022-08-02T09:18:16;6.65;;;3.55;;
23670;SDS011;12012;51.998;7.614;2022-08-02T09:20:55;4.95;;;2.67;;
23670;SDS011;12012;51.998;7.614;2022-08-02T09:23:23;3.88;;;2.60;;
23670;SDS011;12012;51.998;7.614;2022-08-02T09:25:59;4.82;;;2.70;;
23670;SDS011;12012;51.998;7.614;2022-08-02T09:28:30;4.20;;;2.30;;
23670;SDS011;12012;51.998;7.614;2022-08-02T09:33:27;6.63;;;2.10;;
23670;SDS011;12012;51.998;7.614;2022-08-02T09:35:57;3.33;;;2.50;;
23670;SDS011;12012;51.998;7.614;2022-08-02T09:38:24;2.95;;;2.03;;
23670;SDS011;12012;51.998;7.614;2022-08-02T09:40:50;3.47;;;2.20;;
23670;SDS011;12012;51.998;7.614;2022-08-02T09:43:15;5.43;;;2.33;;
23670;SDS011;12012;51.998;7.614;2022-08-02T09:45:41;4.57;;;2.35;;
23670;SDS011;12012;51.998;7.614;2022-08-02T09:48:07;4.28;;;1.83;;
23670;SDS011;12012;51.998;7.614;2022-08-02T09:50:35;4.43;;;2.60;;
23670;SDS011;12012;51.998;7.614;2022-08-02T09:53:01;5.53;;;2.65;;
23670;SDS011;12012;51.998;7.614;2022-08-02T09:55:28;6.82;;;2.47;;
23670;SDS011;12012;51.998;7.614;2022-08-02T09:57:54;4.10;;;1.88;;
23670;SDS011;12012;51.998;7.614;2022-08-02T10:00:20;3.63;;;1.92;;
23670;SDS011;12012;51.998;7.614;2022-08-02T10:05:30;6.93;;;2.10;;
23670;SDS011;12012;51.998;7.614;2022-08-02T10:08:10;2.60;;;1.73;;
23670;SDS011;12012;51.998;7.614;2022-08-02T10:10:37;4.50;;;1.75;;
23670;SDS011;12012;51.998;7.614;2022-08-02T10:13:02;4.72;;;2.30;;
23670;SDS011;12012;51.998;7.614;2022-08-02T10:15:29;4.68;;;2.60;;
23670;SDS011;12012;51.998;7.614;2022-08-02T10:17:55;4.70;;;2.63;;
23670;SDS011;12012;51.998;7.614;2022-08-02T10:20:20;3.78;;;2.22;;
23670;SDS011;12012;51.998;7.614;2022-08-02T10:22:47;3.45;;;2.00;;
23670;SDS011;12012;51.998;7.614;2022-08-02T10:25:13;5.20;;;2.70;;
23670;SDS011;12012;51.998;7.614;2022-08-02T10:27:39;7.53;;;2.92;;
23670;SDS011;12012;51.998;7.614;2022-08-02T10:30:07;3.38;;;2.20;;
23670;SDS011;12012;51.998;7.614;2022-08-02T10:32:37;4.07;;;2.30;;
23670;SDS011;12012;51.998;7.614;2022-08-02T10:35:07;4.25;;;2.45;;
23670;SDS011;12012;51.998;7.614;2022-08-02T10:37:35;6.68;;;2.35;;
23670;SDS011;12012;51.998;7.614;2022-08-02T10:40:04;3.65;;;2.20;;
23670;SDS011;12012;51.998;7.614;2022-08-02T10:42:46;3.22;;;2.10;;
23670;SDS011;12012;51.998;7.614;2022-08-02T10:45:18;2.85;;;2.58;;
23670;SDS011;12012;51.998;7.614;2022-08-02T10:55:49;4.90;;;2.35;;
23670;SDS011;12012;51.998;7.614;2022-08-02T10:58:19;5.53;;;2.30;;
23670;SDS011;12012;51.998;7.614;2022-08-02T11:00:46;4.00;;;1.80;;
23670;SDS011;12012;51.998;7.614;2022-08-02T11:06:00;3.28;;;2.47;;
23670;SDS011;12012;51.998;7.614;2022-08-02T11:08:28;4.32;;;2.15;;
23670;SDS011;12012;51.998;7.614;2022-08-02T11:11:00;4.07;;;2.80;;
23670;SDS011;12012;51.998;7.614;2022-08-02T11:14:20;3.40;;;1.92;;
23670;SDS011;12012;51.998;7.614;2022-08-02T11:19:18;3.30;;;2.05;;
23670;SDS011;12012;51.998;7.614;2022-08-02T11:21:58;4.45;;;2.22;;
23670;SDS011;12012;51.998;7.614;2022-08-02T11:24:34;2.25;;;1.80;;
23670;SDS011;12012;51.998;7.614;2022-08-02T11:27:02;3.80;;;1.92;;
23670;SDS011;12012;51.998;7.614;2022-08-02T11:31:57;2.03;;;1.70;;
23670;SDS011;12012;51.998;7.614;2022-08-02T11:34:24;4.90;;;2.00;;
23670;SDS011;12012;51.998;7.614;2022-08-02T11:36:51;2.10;;;1.70;;
23670;SDS011;12012;51.998;7.614;2022-08-02T11:39:18;3.40;;;2.10;;
23670;SDS011;12012;51.998;7.614;2022-08-02T11:41:52;4.65;;;2.15;;
23670;SDS011;12012;51.998;7.614;2022-08-02T11:44:21;3.03;;;2.00;;
23670;SDS011;12012;51.998;7.614;2022-08-02T11:46:55;4.43;;;2.22;;
23670;SDS011;12012;51.998;7.614;2022-08-02T11:49:22;3.15;;;1.85;;
23670;SDS011;12012;51.998;7.614;2022-08-02T11:54:26;4.97;;;2.67;;
23670;SDS011;12012;51.998;7.614;2022-08-02T11:56:54;6.22;;;2.70;;
23670;SDS011;12012;51.998;7.614;2022-08-02T11:59:32;4.75;;;2.80;;
23670;SDS011;12012;51.998;7.614;2022-08-02T12:02:00;3.13;;;2.50;;
23670;SDS011;12012;51.998;7.614;2022-08-02T12:04:29;2.50;;;2.17;;
23670;SDS011;12012;51.998;7.614;2022-08-02T12:06:56;4.15;;;2.45;;
23670;SDS011;12012;51.998;7.614;2022-08-02T12:09:23;3.67;;;2.70;;
23670;SDS011;12012;51.998;7.614;2022-08-02T12:11:51;5.30;;;3.03;;
23670;SDS011;12012;51.998;7.614;2022-08-02T12:14:16;4.63;;;2.70;;
23670;SDS011;12012;51.998;7.614;2022-08-02T12:16:43;4.57;;;3.00;;
23670;SDS011;12012;51.998;7.614;2022-08-02T12:19:27;3.60;;;3.10;;
23670;SDS011;12012;51.998;7.614;2022-08-02T12:24:31;3.25;;;2.95;;
23670;SDS011;12012;51.998;7.614;2022-08-02T12:26:57;5.07;;;3.47;;
23670;SDS011;12012;51.998;7.614;2022-08-02T12:29:30;3.78;;;2.58;;
23670;SDS011;12012;51.998;7.614;2022-08-02T12:32:00;3.83;;;2.67;;
23670;SDS011;12012;51.998;7.614;2022-08-02T12:34:27;5.13;;;2.40;;
23670;SDS011;12012;51.998;7.614;2022-08-02T12:42:03;4.20;;;2.20;;
23670;SDS011;12012;51.998;7.614;2022-08-02T12:44:30;5.68;;;2.05;;
23670;SDS011;12012;51.998;7.614;2022-08-02T12:47:00;5.13;;;2.28;;
23670;SDS011;12012;51.998;7.614;2022-08-02T12:49:35;3.80;;;2.35;;
23670;SDS011;12012;51.998;7.614;2022-08-02T12:52:01;3.28;;;2.00;;
23670;SDS011;12012;51.998;7.614;2022-08-02T12:54:42;3.28;;;2.15;;
23670;SDS011;12012;51.998;7.614;2022-08-02T12:57:11;4.22;;;2.20;;
23670;SDS011;12012;51.998;7.614;2022-08-02T12:59:39;4.00;;;2.20;;
23670;SDS011;12012;51.998;7.614;2022-08-02T13:02:07;2.88;;;1.90;;
23670;SDS011;12012;51.998;7.614;2022-08-02T13:04:35;4.15;;;2.22;;
23670;SDS011;12012;51.998;7.614;2022-08-02T13:07:01;3.80;;;2.30;;
23670;SDS011;12012;51.998;7.614;2022-08-02T13:09:33;4.35;;;2.20;;
23670;SDS011;12012;51.998;7.614;2022-08-02T13:12:00;3.28;;;1.85;;
23670;SDS011;12012;51.998;7.614;2022-08-02T13:14:26;4.28;;;2.15;;
23670;SDS011;12012;51.998;7.614;2022-08-02T13:16:52;2.25;;;2.05;;
23670;SDS011;12012;51.998;7.614;2022-08-02T13:19:17;4.35;;;2.47;;
23670;SDS011;12012;51.998;7.614;2022-08-02T13:21:43;2.08;;;1.90;;
23670;SDS011;12012;51.998;7.614;2022-08-02T13:24:10;2.50;;;1.85;;
23670;SDS011;12012;51.998;7.614;2022-08-02T13:26:38;3.40;;;1.98;;
23670;SDS011;12012;51.998;7.614;2022-08-02T13:29:04;3.65;;;2.10;;
23670;SDS011;12012;51.998;7.614;2022-08-02T13:31:30;2.53;;;2.10;;
23670;SDS011;12012;51.998;7.614;2022-08-02T13:33:58;2.15;;;1.92;;
23670;SDS011;12012;51.998;7.614;2022-08-02T13:36:24;2.97;;;2.00;;
23670;SDS011;12012;51.998;7.614;2022-08-02T13:38:49;3.67;;;2.17;;
23670;SDS011;12012;51.998;7.614;2022-08-02T13:41:15;2.20;;;1.92;;
23670;SDS011;12012;51.998;7.614;2022-08-02T13:43:40;1.95;;;1.80;;
23670;SDS011;12012;51.998;7.614;2022-08-02T13:46:06;2.38;;;1.88;;
23670;SDS011;12012;51.998;7.614;2022-08-02T13:48:32;2.72;;;1.90;;
23670;SDS011;12012;51.998;7.614;2022-08-02T13:50:58;5.97;;;2.40;;
23670;SDS011;12012;51.998;7.614;2022-08-02T13:53:23;4.72;;;1.90;;
23670;SDS011;12012;51.998;7.614;2022-08-02T13:55:50;5.18;;;2.10;;
23670;SDS011;12012;51.998;7.614;2022-08-02T13:58:15;3.42;;;2.20;;
23670;SDS011;12012;51.998;7.614;2022-08-02T14:00:41;2.55;;;2.05;;
23670;SDS011;12012;51.998;7.614;2022-08-02T14:03:07;5.47;;;2.13;;
23670;SDS011;12012;51.998;7.614;2022-08-02T14:05:36;4.28;;;1.83;;
23670;SDS011;12012;51.998;7.614;2022-08-02T14:10:28;2.08;;;1.90;;
23670;SDS011;12012;51.998;7.614;2022-08-02T14:12:54;4.82;;;2.10;;
23670;SDS011;12012;51.998;7.614;2022-08-02T14:15:20;5.40;;;2.08;;
23670;SDS011;12012;51.998;7.614;2022-08-02T14:17:45;2.55;;;1.60;;
23670;SDS011;12012;51.998;7.614;2022-08-02T14:20:11;3.58;;;1.90;;
23670;SDS011;12012;51.998;7.614;2022-08-02T14:22:40;2.30;;;1.63;;
23670;SDS011;12012;51.998;7.614;2022-08-02T14:25:06;1.73;;;1.63;;
23670;SDS011;12012;51.998;7.614;2022-08-02T14:27:32;4.10;;;2.20;;
23670;SDS011;12012;51.998;7.614;2022-08-02T14:29:57;3.78;;;2.08;;
23670;SDS011;12012;51.998;7.614;2022-08-02T14:32:23;2.13;;;1.58;;
23670;SDS011;12012;51.998;7.614;2022-08-02T14:34:49;2.13;;;1.60;;
23670;SDS011;12012;51.998;7.614;2022-08-02T14:37:14;4.93;;;1.77;;
23670;SDS011;12012;51.998;7.614;2022-08-02T14:39:41;5.88;;;1.55;;
23670;SDS011;12012;51.998;7.614;2022-08-02T14:42:07;1.95;;;1.67;;
23670;SDS011;12012;51.998;7.614;2022-08-02T14:44:32;2.35;;;1.52;;
23670;SDS011;12012;51.998;7.614;2022-08-02T14:46:59;4.10;;;1.60;;
23670;SDS011;12012;51.998;7.614;2022-08-02T14:49:25;1.77;;;1.67;;
23670;SDS011;12012;51.998;7.614;2022-08-02T14:51:50;3.08;;;1.55;;
23670;SDS011;12012;51.998;7.614;2022-08-02T14:54:16;2.83;;;1.70;;
23670;SDS011;12012;51.998;7.614;2022-08-02T14:56:42;2.22;;;1.70;;
23670;SDS011;12012;51.998;7.614;2022-08-02T14:59:07;3.90;;;1.50;;
23670;SDS011;12012;51.998;7.614;2022-08-02T15:01:33;2.38;;;1.67;;
23670;SDS011;12012;51.998;7.614;2022-08-02T15:03:59;1.75;;;1.63;;
23670;SDS011;12012;51.998;7.614;2022-08-02T15:06:25;2.10;;;1.50;;
23670;SDS011;12012;51.998;7.614;2022-08-02T15:08:55;3.63;;;1.40;;
23670;SDS011;12012;51.998;7.614;2022-08-02T15:11:22;1.98;;;1.70;;
23670;SDS011;12012;51.998;7.614;2022-08-02T15:13:47;2.58;;;1.85;;
23670;SDS011;12012;51.998;7.614;2022-08-02T15:16:13;2.08;;;1.50;;
23670;SDS011;12012;51.998;7.614;2022-08-02T15:18:39;2.03;;;1.38;;
23670;SDS011;12012;51.998;7.614;2022-08-02T15:21:04;3.60;;;1.48;;
23670;SDS011;12012;51.998;7.614;2022-08-02T15:23:30;4.13;;;1.67;;
23670;SDS011;12012;51.998;7.614;2022-08-02T15:25:56;2.30;;;1.50;;
23670;SDS011;12012;51.998;7.614;2022-08-02T15:28:22;2.25;;;1.65;;
23670;SDS011;12012;51.998;7.614;2022-08-02T15:30:49;3.35;;;2.05;;
23670;SDS011;12012;51.998;7.614;2022-08-02T15:33:14;5.05;;;2.22;;
23670;SDS011;12012;51.998;7.614;2022-08-02T15:35:40;5.90;;;2.38;;
23670;SDS011;12012;51.998;7.614;2022-08-02T15:38:05;5.30;;;1.83;;
23670;SDS011;12012;51.998;7.614;2022-08-02T15:40:31;4.63;;;2.58;;
23670;SDS011;12012;51.998;7.614;2022-08-02T15:42:57;2.38;;;2.15;;
23670;SDS011;12012;51.998;7.614;2022-08-02T15:45:22;3.33;;;1.80;;
23670;SDS011;12012;51.998;7.614;2022-08-02T15:47:49;2.88;;;1.92;;